createdAt,value
2022-10-30T00:00:38.627Z,24.30
2022-10-30T00:03:05.368Z,28.33
2022-10-30T00:05:32.030Z,26.92
2022-10-30T00:07:59.592Z,34.47
2022-10-30T00:10:26.564Z,28.17
2022-10-30T00:12:53.989Z,30.30
2022-10-30T00:15:20.595Z,34.92
2022-10-30T00:17:47.193Z,31.52
2022-10-30T00:20:13.752Z,31.23
2022-10-30T00:22:40.310Z,27.13
2022-10-30T00:25:07.353Z,25.95
2022-10-30T00:27:33.891Z,31.70
2022-10-30T00:30:00.512Z,25.15
2022-10-30T00:32:27.819Z,31.45
2022-10-30T00:34:54.428Z,30.38
2022-10-30T00:37:21.048Z,29.63
2022-10-30T00:39:47.665Z,24.02
2022-10-30T00:42:16.827Z,31.33
2022-10-30T00:44:52.632Z,28.38
2022-10-30T00:47:37.966Z,26.42
2022-10-30T00:50:11.269Z,23.10
2022-10-30T00:52:45.371Z,28.20
2022-10-30T00:55:17.049Z,25.27
2022-10-30T00:57:45.050Z,20.83
2022-10-30T01:00:12.819Z,27.40
2022-10-30T01:02:40.698Z,23.70
2022-10-30T01:05:07.666Z,20.50
2022-10-30T01:07:35.600Z,21.40
2022-10-30T01:10:03.194Z,23.65
2022-10-30T01:12:29.973Z,22.88
2022-10-30T01:14:59.164Z,22.85
2022-10-30T01:17:57.391Z,20.90
2022-10-30T01:20:52.324Z,24.60
2022-10-30T01:23:28.830Z,24.80
2022-10-30T01:28:37.828Z,21.77
2022-10-30T01:31:31.491Z,26.63
2022-10-30T01:34:22.633Z,20.30
2022-10-30T01:36:57.103Z,28.45
2022-10-30T01:39:28.119Z,24.88
2022-10-30T01:41:55.301Z,24.33
2022-10-30T01:44:32.971Z,22.33
2022-10-30T01:47:22.855Z,26.95
2022-10-30T01:50:14.771Z,22.33
2022-10-30T01:52:57.725Z,20.88
2022-10-30T01:55:51.445Z,25.67
2022-10-30T01:58:28.099Z,23.88
2022-10-30T02:00:58.842Z,22.40
2022-10-30T02:03:27.414Z,22.88
2022-10-30T02:05:54.459Z,16.27
2022-10-30T02:08:23.377Z,23.75
2022-10-30T02:10:52.873Z,17.60
2022-10-30T02:13:31.564Z,21.10
2022-10-30T02:15:59.392Z,23.98
2022-10-30T02:18:26.008Z,23.30
2022-10-30T02:20:53.774Z,21.92
2022-10-30T02:23:22.319Z,23.45
2022-10-30T02:25:50.190Z,23.05
2022-10-30T02:28:16.828Z,19.33
2022-10-30T02:30:46.165Z,17.67
2022-10-30T02:33:12.851Z,24.33
2022-10-30T02:35:39.527Z,21.75
2022-10-30T02:38:06.080Z,20.33
2022-10-30T02:40:32.663Z,17.50
2022-10-30T02:42:59.583Z,21.25
2022-10-30T02:45:26.285Z,17.45
2022-10-30T02:47:52.953Z,24.95
2022-10-30T02:50:19.618Z,20.23
2022-10-30T02:52:46.288Z,20.83
2022-10-30T02:55:12.941Z,23.25
2022-10-30T02:57:40.788Z,21.75
2022-10-30T03:00:07.960Z,16.80
2022-10-30T03:02:34.601Z,20.92
2022-10-30T03:05:01.204Z,24.25
2022-10-30T03:07:28.003Z,21.02
2022-10-30T03:09:54.914Z,23.00
2022-10-30T03:12:22.693Z,27.73
2022-10-30T03:14:49.324Z,21.95
2022-10-30T03:17:16.142Z,22.92
2022-10-30T03:19:42.744Z,19.25
2022-10-30T03:22:09.763Z,35.22
2022-10-30T03:24:38.211Z,20.33
2022-10-30T03:27:05.273Z,27.60
2022-10-30T03:29:31.847Z,18.42
2022-10-30T03:31:58.450Z,20.67
2022-10-30T03:34:29.937Z,24.33
2022-10-30T03:36:58.593Z,21.88
2022-10-30T03:39:25.955Z,22.02
2022-10-30T03:41:52.727Z,24.25
2022-10-30T03:44:19.365Z,17.15
2022-10-30T03:46:46.059Z,24.00
2022-10-30T03:49:26.829Z,24.88
2022-10-30T03:51:54.524Z,20.05
2022-10-30T03:54:23.151Z,16.67
2022-10-30T03:56:49.747Z,18.70
2022-10-30T03:59:17.064Z,19.80
2022-10-30T04:04:21.563Z,26.83
2022-10-30T04:06:48.260Z,25.08
2022-10-30T04:09:15.608Z,24.58
2022-10-30T04:11:44.189Z,25.45
2022-10-30T04:14:10.783Z,23.65
2022-10-30T04:16:37.391Z,24.23
2022-10-30T04:19:04.108Z,23.40
2022-10-30T04:21:30.692Z,25.90
2022-10-30T04:23:58.442Z,23.35
2022-10-30T04:26:28.476Z,26.27
2022-10-30T04:28:55.028Z,27.33
2022-10-30T04:31:21.701Z,22.15
2022-10-30T04:33:48.620Z,24.75
2022-10-30T04:36:17.842Z,26.67
2022-10-30T04:38:45.459Z,26.70
2022-10-30T04:41:12.650Z,20.75
2022-10-30T04:43:51.448Z,27.35
2022-10-30T04:46:18.524Z,28.00
2022-10-30T04:48:45.707Z,24.98
2022-10-30T04:51:13.053Z,19.88
2022-10-30T04:53:39.716Z,22.10
2022-10-30T04:56:08.536Z,21.40
2022-10-30T04:58:37.208Z,20.95
2022-10-30T05:01:06.740Z,21.77
2022-10-30T05:03:34.480Z,21.08
2022-10-30T05:06:07.067Z,21.55
2022-10-30T05:08:34.177Z,23.00
2022-10-30T05:11:09.278Z,21.13
2022-10-30T05:13:35.932Z,19.65
2022-10-30T05:16:02.683Z,21.65
2022-10-30T05:18:29.382Z,17.45
2022-10-30T05:20:56.084Z,18.88
2022-10-30T05:23:22.884Z,17.35
2022-10-30T05:25:49.965Z,16.45
2022-10-30T05:28:16.612Z,22.92
2022-10-30T05:30:55.663Z,20.60
2022-10-30T05:33:40.733Z,18.30
2022-10-30T05:36:08.310Z,29.17
2022-10-30T05:38:35.036Z,17.40
2022-10-30T05:41:01.835Z,25.88
2022-10-30T05:43:28.480Z,19.23
2022-10-30T05:45:55.681Z,17.55
2022-10-30T05:48:22.322Z,18.27
2022-10-30T05:50:49.734Z,21.40
2022-10-30T05:53:26.663Z,24.85
2022-10-30T05:55:59.177Z,20.48
2022-10-30T05:58:30.012Z,17.75
2022-10-30T06:00:58.830Z,20.02
2022-10-30T06:03:44.597Z,25.15
2022-10-30T06:06:12.303Z,17.23
2022-10-30T06:08:39.065Z,18.55
2022-10-30T06:11:21.281Z,25.05
2022-10-30T06:13:52.861Z,18.88
2022-10-30T06:16:24.438Z,18.13
2022-10-30T06:19:17.545Z,23.65
2022-10-30T06:21:46.530Z,26.65
2022-10-30T06:24:15.498Z,25.08
2022-10-30T06:26:59.783Z,18.73
2022-10-30T06:29:26.456Z,23.15
2022-10-30T06:31:53.074Z,25.85
2022-10-30T06:34:19.731Z,20.30
2022-10-30T06:36:46.448Z,18.02
2022-10-30T06:39:13.083Z,25.77
2022-10-30T06:41:55.129Z,18.75
2022-10-30T06:44:42.002Z,22.50
2022-10-30T06:47:08.795Z,26.52
2022-10-30T06:49:35.524Z,18.30
2022-10-30T06:52:02.399Z,15.30
2022-10-30T06:54:29.709Z,20.70
2022-10-30T06:57:14.943Z,15.52
2022-10-30T06:59:52.059Z,20.48
2022-10-30T07:02:41.898Z,23.08
2022-10-30T07:05:11.704Z,19.60
2022-10-30T07:07:38.303Z,24.08
2022-10-30T07:10:06.248Z,18.10
2022-10-30T07:12:58.926Z,18.20
2022-10-30T07:18:23.544Z,14.02
2022-10-30T07:20:57.177Z,19.52
2022-10-30T07:23:24.664Z,18.35
2022-10-30T07:25:57.240Z,19.08
2022-10-30T07:28:35.783Z,18.77
2022-10-30T07:31:28.956Z,19.98
2022-10-30T07:34:30.567Z,15.32
2022-10-30T07:37:16.085Z,19.15
2022-10-30T07:39:57.903Z,16.75
2022-10-30T07:42:43.272Z,21.48
2022-10-30T07:45:29.180Z,24.10
2022-10-30T07:48:16.086Z,16.55
2022-10-30T07:51:01.546Z,17.90
2022-10-30T07:53:28.276Z,13.02
2022-10-30T07:55:56.073Z,18.75
2022-10-30T07:58:45.961Z,16.98
2022-10-30T08:01:45.001Z,17.98
2022-10-30T08:04:23.208Z,17.33
2022-10-30T08:06:55.685Z,19.17
2022-10-30T08:09:22.349Z,15.55
2022-10-30T08:11:48.979Z,16.25
2022-10-30T08:14:16.235Z,23.45
2022-10-30T08:16:42.891Z,19.95
2022-10-30T08:19:09.655Z,17.15
2022-10-30T08:21:36.300Z,19.88
2022-10-30T08:24:10.654Z,18.92
2022-10-30T08:26:40.372Z,13.73
2022-10-30T08:29:09.118Z,15.70
2022-10-30T08:31:35.713Z,20.98
2022-10-30T08:34:02.421Z,20.02
2022-10-30T08:36:35.257Z,19.48
2022-10-30T08:39:03.963Z,18.33
2022-10-30T08:42:00.109Z,19.75
2022-10-30T08:44:31.867Z,17.20
2022-10-30T08:47:21.573Z,18.95
2022-10-30T08:49:48.583Z,17.38
2022-10-30T08:52:18.882Z,17.33
2022-10-30T08:54:49.719Z,15.52
2022-10-30T08:57:16.373Z,19.60
2022-10-30T08:59:43.216Z,19.50
2022-10-30T09:02:22.022Z,17.95
2022-10-30T09:05:09.151Z,24.77
2022-10-30T09:07:58.986Z,22.00
2022-10-30T09:10:45.859Z,14.90
2022-10-30T09:13:13.169Z,17.40
2022-10-30T09:15:39.905Z,18.85
2022-10-30T09:18:06.574Z,19.88
2022-10-30T09:20:33.232Z,19.70
2022-10-30T09:23:00.155Z,18.25
2022-10-30T09:25:27.190Z,20.65
2022-10-30T09:28:12.449Z,20.20
2022-10-30T09:31:05.200Z,17.70
2022-10-30T09:33:35.327Z,17.67
2022-10-30T09:36:33.895Z,16.30
2022-10-30T09:39:00.725Z,19.00
2022-10-30T09:41:58.625Z,15.77
2022-10-30T09:45:15.270Z,20.90
2022-10-30T09:47:50.535Z,18.63
2022-10-30T09:50:26.115Z,24.42
2022-10-30T09:53:25.955Z,19.58
2022-10-30T09:56:08.282Z,17.27
2022-10-30T09:59:17.935Z,16.65
2022-10-30T10:02:09.565Z,19.95
2022-10-30T10:04:48.092Z,14.57
2022-10-30T10:07:22.363Z,18.23
2022-10-30T10:10:03.203Z,13.73
2022-10-30T10:12:47.636Z,14.98
2022-10-30T10:15:49.577Z,16.65
2022-10-30T10:18:25.518Z,22.90
2022-10-30T10:20:56.172Z,20.50
2022-10-30T10:24:03.454Z,18.27
2022-10-30T10:26:42.627Z,17.02
2022-10-30T10:29:38.213Z,21.67
2022-10-30T10:32:31.979Z,20.98
2022-10-30T10:35:04.689Z,15.98
2022-10-30T10:38:00.792Z,19.48
2022-10-30T10:40:59.608Z,20.55
2022-10-30T10:43:59.920Z,12.93
2022-10-30T10:46:46.665Z,16.27
2022-10-30T10:49:22.307Z,19.83
2022-10-30T10:51:56.532Z,14.00
2022-10-30T10:54:32.635Z,19.50
2022-10-30T10:56:59.883Z,21.80
2022-10-30T10:59:32.516Z,18.00
2022-10-30T11:02:22.855Z,24.38
2022-10-30T11:04:53.917Z,17.83
2022-10-30T11:07:24.963Z,19.35
2022-10-30T11:09:53.720Z,13.85
2022-10-30T11:12:32.290Z,16.85
2022-10-30T11:15:31.498Z,19.27
2022-10-30T11:18:00.938Z,22.20
2022-10-30T11:20:47.307Z,23.67
2022-10-30T11:23:40.686Z,17.77
2022-10-30T11:26:22.275Z,19.42
2022-10-30T11:29:03.097Z,18.75
2022-10-30T11:31:37.688Z,18.42
2022-10-30T11:34:19.602Z,15.45
2022-10-30T11:36:48.513Z,16.23
2022-10-30T11:39:23.322Z,18.60
2022-10-30T11:41:58.866Z,15.07
2022-10-30T11:44:29.803Z,19.98
2022-10-30T11:46:57.240Z,16.98
2022-10-30T11:49:27.275Z,20.83
2022-10-30T11:51:54.457Z,19.55
2022-10-30T11:54:22.196Z,21.05
2022-10-30T11:56:50.695Z,22.75
2022-10-30T11:59:21.498Z,15.88
2022-10-30T12:01:59.817Z,16.63
2022-10-30T12:04:28.408Z,15.38
2022-10-30T12:07:23.037Z,16.08
2022-10-30T12:09:49.971Z,17.88
2022-10-30T12:12:22.765Z,21.67
2022-10-30T12:14:49.979Z,19.70
2022-10-30T12:17:18.573Z,18.10
2022-10-30T12:19:55.541Z,16.20
2022-10-30T12:22:32.027Z,16.17
2022-10-30T12:25:17.877Z,21.55
2022-10-30T12:27:44.888Z,16.15
2022-10-30T12:30:18.339Z,21.30
2022-10-30T12:33:00.627Z,15.20
2022-10-30T12:35:42.600Z,17.95
2022-10-30T12:38:32.987Z,19.15
2022-10-30T12:41:23.667Z,20.48
2022-10-30T12:44:16.536Z,19.98
2022-10-30T12:46:52.350Z,17.00
2022-10-30T12:49:26.296Z,19.65
2022-10-30T12:52:02.300Z,20.15
2022-10-30T12:54:40.136Z,15.52
2022-10-30T12:57:25.135Z,19.15
2022-10-30T13:00:03.534Z,14.85
2022-10-30T13:02:39.019Z,22.08
2022-10-30T13:05:32.933Z,20.42
2022-10-30T13:08:30.685Z,19.42
2022-10-30T13:11:05.270Z,24.70
2022-10-30T13:13:38.917Z,16.02
2022-10-30T13:16:15.766Z,15.45
2022-10-30T13:18:42.442Z,16.92
2022-10-30T13:21:20.366Z,20.20
2022-10-30T13:23:59.050Z,25.35
2022-10-30T13:26:42.059Z,14.80
2022-10-30T13:29:45.685Z,15.88
2022-10-30T13:32:41.861Z,18.90
2022-10-30T13:35:32.873Z,22.55
2022-10-30T13:38:02.903Z,15.52
2022-10-30T13:40:38.135Z,17.52
2022-10-30T13:43:32.743Z,17.50
2022-10-30T13:46:27.725Z,19.10
2022-10-30T13:49:23.716Z,20.95
2022-10-30T13:52:00.880Z,20.33
2022-10-30T13:54:32.108Z,20.17
2022-10-30T13:57:11.912Z,20.60
2022-10-30T13:59:59.745Z,16.15
2022-10-30T14:02:53.784Z,18.55
2022-10-30T14:05:29.183Z,17.75
2022-10-30T14:08:36.451Z,17.13
2022-10-30T14:11:06.081Z,15.27
2022-10-30T14:13:35.635Z,20.55
2022-10-30T14:16:06.181Z,19.38
2022-10-30T14:18:46.488Z,20.40
2022-10-30T14:21:53.177Z,20.65
2022-10-30T14:24:34.505Z,20.52
2022-10-30T14:27:04.122Z,16.85
2022-10-30T14:29:34.004Z,23.30
2022-10-30T14:32:13.077Z,16.52
2022-10-30T14:35:00.137Z,18.35
2022-10-30T14:37:26.999Z,19.17
2022-10-30T14:39:55.625Z,21.52
2022-10-30T14:42:28.396Z,17.25
2022-10-30T14:45:24.591Z,18.52
2022-10-30T14:47:54.235Z,17.15
2022-10-30T14:50:26.935Z,23.05
2022-10-30T14:53:12.753Z,21.60
2022-10-30T14:56:23.650Z,20.95
2022-10-30T14:59:12.453Z,16.38
2022-10-30T15:02:00.614Z,35.25
2022-10-30T15:05:08.579Z,28.92
2022-10-30T15:08:00.628Z,15.23
2022-10-30T15:10:32.656Z,17.17
2022-10-30T15:13:20.007Z,17.90
2022-10-30T15:16:00.852Z,19.55
2022-10-30T15:18:30.815Z,17.42
2022-10-30T15:21:04.012Z,19.27
2022-10-30T15:23:34.032Z,23.42
2022-10-30T15:26:09.580Z,20.80
2022-10-30T15:28:38.354Z,19.38
2022-10-30T15:31:17.248Z,19.65
2022-10-30T15:33:44.609Z,20.38
2022-10-30T15:36:20.865Z,18.73
2022-10-30T15:39:07.287Z,19.10
2022-10-30T15:41:43.748Z,25.58
2022-10-30T15:44:14.423Z,14.52
2022-10-30T15:46:47.570Z,22.92
2022-10-30T15:49:34.232Z,25.48
2022-10-30T15:52:32.144Z,23.08
2022-10-30T15:55:08.159Z,84.07
2022-10-30T16:00:33.046Z,21.88
2022-10-30T16:03:05.402Z,49.17
2022-10-30T16:05:33.027Z,26.90
2022-10-30T16:08:02.196Z,27.58
2022-10-30T16:10:34.681Z,24.65
2022-10-30T16:13:03.507Z,20.50
2022-10-30T16:15:38.342Z,20.52
2022-10-30T16:18:07.374Z,24.90
2022-10-30T16:20:36.020Z,30.60
2022-10-30T16:23:04.451Z,29.58
2022-10-30T16:25:32.610Z,29.75
2022-10-30T16:27:59.561Z,28.58
2022-10-30T16:30:29.439Z,23.38
2022-10-30T16:32:56.448Z,28.80
2022-10-30T16:35:24.447Z,25.33
2022-10-30T16:37:51.613Z,42.90
2022-10-30T16:40:27.193Z,45.00
2022-10-30T16:42:59.638Z,48.20
2022-10-30T16:45:32.533Z,39.20
2022-10-30T16:48:09.790Z,47.55
2022-10-30T16:50:37.980Z,26.65
2022-10-30T16:53:24.700Z,40.90
2022-10-30T16:55:52.681Z,35.22
2022-10-30T16:58:20.706Z,34.45
2022-10-30T17:01:03.476Z,43.15
2022-10-30T17:03:38.127Z,57.40
2022-10-30T17:06:07.916Z,91.53
2022-10-30T17:08:54.922Z,126.75
2022-10-30T17:11:35.944Z,54.35
2022-10-30T17:14:06.873Z,43.60
2022-10-30T17:16:37.363Z,47.22
2022-10-30T17:19:32.227Z,57.00
2022-10-30T17:22:02.208Z,36.35
2022-10-30T17:24:32.374Z,31.92
2022-10-30T17:27:05.435Z,53.63
2022-10-30T17:29:38.250Z,41.30
2022-10-30T17:32:13.773Z,37.33
2022-10-30T17:34:40.427Z,35.00
2022-10-30T17:37:07.128Z,36.75
2022-10-30T17:39:33.781Z,28.15
2022-10-30T17:42:00.565Z,27.25
2022-10-30T17:44:29.684Z,36.47
2022-10-30T17:46:56.313Z,81.32
2022-10-30T17:49:32.442Z,83.07
2022-10-30T17:51:59.549Z,85.97
2022-10-30T17:54:26.252Z,80.78
2022-10-30T17:56:52.938Z,54.70
2022-10-30T17:59:19.555Z,52.03
2022-10-30T18:01:46.964Z,52.03
2022-10-30T18:04:20.533Z,35.08
2022-10-30T18:06:47.816Z,25.35
2022-10-30T18:09:14.456Z,24.85
2022-10-30T18:11:41.083Z,34.65
2022-10-30T18:14:10.959Z,25.35
2022-10-30T18:16:37.996Z,31.05
2022-10-30T18:19:09.178Z,37.70
2022-10-30T18:21:35.759Z,35.35
2022-10-30T18:24:02.382Z,34.70
2022-10-30T18:26:29.089Z,32.05
2022-10-30T18:28:55.761Z,27.60
2022-10-30T18:31:24.438Z,41.55
2022-10-30T18:33:51.298Z,39.22
2022-10-30T18:36:20.575Z,34.10
2022-10-30T18:38:47.299Z,34.80
2022-10-30T18:41:28.591Z,32.85
2022-10-30T18:43:55.164Z,31.65
2022-10-30T18:46:21.900Z,28.77
2022-10-30T18:48:48.526Z,37.72
2022-10-30T18:51:24.808Z,23.60
2022-10-30T18:53:52.093Z,30.88
2022-10-30T18:56:26.729Z,25.83
2022-10-30T18:58:58.463Z,42.30
2022-10-30T19:01:32.460Z,44.17
2022-10-30T19:04:00.961Z,34.08
2022-10-30T19:06:28.014Z,31.75
2022-10-30T19:08:54.669Z,29.27
2022-10-30T19:11:24.891Z,27.95
2022-10-30T19:13:52.987Z,29.48
2022-10-30T19:16:23.399Z,43.20
2022-10-30T19:18:50.274Z,34.55
2022-10-30T19:21:20.883Z,31.52
2022-10-30T19:23:48.358Z,30.42
2022-10-30T19:26:16.013Z,30.10
2022-10-30T19:28:43.484Z,30.67
2022-10-30T19:31:14.840Z,30.83
2022-10-30T19:33:41.653Z,23.83
2022-10-30T19:36:36.527Z,27.13
2022-10-30T19:39:12.943Z,23.02
2022-10-30T19:41:40.941Z,33.47
2022-10-30T19:44:07.822Z,29.88
2022-10-30T19:46:35.168Z,32.22
2022-10-30T19:49:16.466Z,34.78
2022-10-30T19:51:43.053Z,49.50
2022-10-30T19:54:10.132Z,48.47
2022-10-30T19:56:36.750Z,61.38
2022-10-30T19:59:03.853Z,57.25
2022-10-30T20:01:30.582Z,49.97
2022-10-30T20:03:57.311Z,32.45
2022-10-30T20:06:24.190Z,35.92
2022-10-30T20:08:50.816Z,34.03
2022-10-30T20:11:17.506Z,29.00
2022-10-30T20:13:44.174Z,31.90
2022-10-30T20:16:11.135Z,46.05
2022-10-30T20:18:38.077Z,32.92
2022-10-30T20:21:08.464Z,41.97
2022-10-30T20:23:36.048Z,34.63
2022-10-30T20:26:06.452Z,36.35
2022-10-30T20:28:39.698Z,29.70
2022-10-30T20:31:07.504Z,39.15
2022-10-30T20:33:34.643Z,47.30
2022-10-30T20:36:01.551Z,40.97
2022-10-30T20:38:31.396Z,37.67
2022-10-30T20:40:59.534Z,40.22
2022-10-30T20:43:37.744Z,39.30
2022-10-30T20:46:06.372Z,36.63
2022-10-30T20:48:33.044Z,37.58
2022-10-30T20:51:01.463Z,36.92
2022-10-30T20:53:29.083Z,34.15
2022-10-30T20:55:56.320Z,46.08
2022-10-30T20:58:23.084Z,40.65
2022-10-30T21:00:53.308Z,40.38
2022-10-30T21:03:19.909Z,40.33
2022-10-30T21:05:46.663Z,31.30
2022-10-30T21:08:14.442Z,38.67
2022-10-30T21:10:41.968Z,42.67
2022-10-30T21:13:10.276Z,39.92
2022-10-30T21:15:42.383Z,41.45
2022-10-30T21:18:11.384Z,33.97
2022-10-30T21:20:38.659Z,39.67
2022-10-30T21:23:06.012Z,43.42
2022-10-30T21:25:32.933Z,47.50
2022-10-30T21:28:00.623Z,34.75
2022-10-30T21:30:27.777Z,38.03
2022-10-30T21:32:54.417Z,35.80
2022-10-30T21:35:21.382Z,33.58
2022-10-30T21:37:48.113Z,36.55
2022-10-30T21:40:14.858Z,40.35
2022-10-30T21:42:41.488Z,56.95
2022-10-30T21:45:08.975Z,40.03
2022-10-30T21:47:35.572Z,44.47
2022-10-30T21:50:05.986Z,39.03
2022-10-30T21:52:34.614Z,27.35
2022-10-30T21:55:01.243Z,37.75
2022-10-30T21:57:28.961Z,27.13
2022-10-30T21:59:56.808Z,29.92
2022-10-30T22:02:25.587Z,39.78
2022-10-30T22:04:52.193Z,39.78
2022-10-30T22:07:19.216Z,39.83
2022-10-30T22:09:46.453Z,32.92
2022-10-30T22:12:13.133Z,30.08
2022-10-30T22:14:39.765Z,42.85
2022-10-30T22:17:06.383Z,29.15
2022-10-30T22:19:32.943Z,27.60
2022-10-30T22:21:59.540Z,24.75
2022-10-30T22:24:26.151Z,22.33
2022-10-30T22:26:52.743Z,22.85
2022-10-30T22:29:19.390Z,27.00
2022-10-30T22:31:46.026Z,19.45
2022-10-30T22:34:12.632Z,24.00
2022-10-30T22:36:39.321Z,22.83
2022-10-30T22:39:12.495Z,22.42
2022-10-30T22:41:39.877Z,23.45
2022-10-30T22:44:10.485Z,24.55
2022-10-30T22:46:37.745Z,43.53
2022-10-30T22:49:04.834Z,43.53
2022-10-30T22:51:33.229Z,33.42
2022-10-30T22:54:02.991Z,19.05
2022-10-30T22:56:32.437Z,19.70
2022-10-30T22:59:02.173Z,24.45
2022-10-30T23:01:31.761Z,19.30
2022-10-30T23:04:01.372Z,15.65
2022-10-30T23:06:30.029Z,17.63
2022-10-30T23:08:58.446Z,18.65
2022-10-30T23:11:26.686Z,13.50
2022-10-30T23:13:53.364Z,20.27
2022-10-30T23:16:22.170Z,17.30
2022-10-30T23:18:49.889Z,16.10
2022-10-30T23:21:18.986Z,18.48
2022-10-30T23:23:46.060Z,17.88
2022-10-30T23:26:21.551Z,17.13
2022-10-30T23:28:50.005Z,22.42
2022-10-30T23:31:22.010Z,18.65
2022-10-30T23:33:50.211Z,16.17
2022-10-30T23:36:16.938Z,16.20
2022-10-30T23:38:43.920Z,19.27
2022-10-30T23:41:10.598Z,23.42
2022-10-30T23:43:37.223Z,15.13
2022-10-30T23:46:03.863Z,14.15
2022-10-30T23:48:30.504Z,15.90
2022-10-30T23:50:57.163Z,20.50
2022-10-30T23:53:23.716Z,15.93
2022-10-30T23:55:54.563Z,14.18
2022-10-30T23:58:21.663Z,19.55
